KCUB/CUB METAR and TAF weather

Enter ICAO airport designator
Station Type Date Time Source
KCUB METAR 2019/12/13 00:53 UTC NOAA

KCUB 130053Z AUTO 06005KT 10SM OVC026 08/M02 A3045 RMK AO2 SLP312 T00831022 $


Station Type Date Time Source
KCUB Decoded METAR 2019/12/13 00:53 UTC NOAA

OWENS DOWNTOWN AIRPORT, SC, United States (KCUB) 33-58N 081-00W 56M
Dec 12, 2019 - 07:53 PM EST / 2019.12.13 0053 UTC
Wind: from the ENE (060 degrees) at 6 MPH (5 KT):0
Visibility: 10 mile(s):0
Sky conditions: overcast
Temperature: 46.9 F (8.3 C)
Dew Point: 28.0 F (-2.2 C)
Relative Humidity: 47%
Pressure (altimeter): 30.45 in. Hg (1031 hPa)
ob: KCUB 130053Z AUTO 06005KT 10SM OVC026 08/M02 A3045 RMK AO2 SLP312 T00831022
cycle: 1

Station Type Date Time Source
KCUB TAF 2019/12/12 23:39 UTC NOAA

TAF
AMD KCUB 122236Z 1223/1318 05008KT P6SM -RA OVC025
FM130400 04008KT 5SM -SHRA OVC015
FM131000 04008KT 2SM SHRA BR OVC006

Example: see airport list